Karamay, China
Current Conditions -  °F | °C
As of 4:30 PM on Saturday 29 Nov 2014 (Local Time) from ZWWW Reporting Station
Clear Clear  
Wind Chill: 11°   Ceiling: Unl
Heat Index: 19°   Visibility: 6mi
Dew Point: 10°   Wind: 7mph
Humidity: 68%   Direction: 10°N
Pressure: 30.71"   Gusts: NA
Location:  45.6°N, 84.86°E
Report Text: ZWWW 290830Z 01003MPS 340V040 CAVOK M07/M12 Q1040 NOSIG
Loading
Personal Weather Stations






























Interactive Weather Map New forecast layout! Learn more

10-Day Weather Forecast

Advertisements
Track Severe Weather on mobile